Minto, Canada
Current Conditions -  °F | °C
As of 4:00 PM on Tuesday 25 Nov 2014 (Local Time) from CYBR Reporting Station
Light Snow Light Snow  
Wind Chill: -8°   Ceiling: 3300
Heat Index: 10°   Visibility: 4mi
Dew Point:   Wind: 20mph
Humidity: 79%   Direction: 50°NE
Pressure: 30"   Gusts: NA
Location:  49.4°N, 100.02°W
Report Text: CYBR 252200Z 05017KT 4SM -SN DRSN SCT013 BKN033 OVC051 M12/M15 A3000 RMK SC3SC3SC2 PRESRR SLP194
Loading
Personal Weather Stations






























Interactive Weather Map New forecast layout! Learn more

10-Day Weather Forecast

Advertisements
Track Severe Weather on mobile